»·PEaware :: PHMJV KSMX-KBFL

PHMJV :: KSMX-KBFL

FLIGHT INFORMATION

Flight Status: Arrived
Operator: Unknown
More flights by this operator :: More flights under this callsign
Pilot: Marten Jan V. (15279)
Aircraft: PIPER PA-23-150/160 APACHE
(PA23)
More flights by this aircraft type
Origin: KSMX Santa Maria Pub/Capt Hancock
United States
Destination: KBFL Meadows
United States
More flights between these airports :: More routes between these airports
Route: KSMX DCT FLW DCT KBFL
File this flight plan on PilotEdge
Remarks: CAT 5
Altitude:
(Current/Filed)
7,000ft
Speed:
(Current/Filed)
150kts
Departed: 15-Jun-17 12:06 PM
Arrived: 15-Jun-17 12:43 PM
Distance/Time
Traveled:
76nm/0:37
Distance/Time
To Go:
Arrived

Flight Plot

Page will automatically refresh every two minutes.

Flight plan parsing failed; only flown route is shown


Map Options




Map Legend


Flown Route
Filed Route
Departure Airport
Arrival Airport
Navaid (VOR, NDB)
Fix

Horizontal Profiles

Position Reports

Time Latitude Longitude Heading Altitude Ground
Speed
15-Jun-17 11:35 34.898887 -120.449158 140 264ft 0kts
15-Jun-17 11:36 34.898887 -120.449158 140 264ft 0kts
15-Jun-17 11:41 34.895494 -120.444534 314 264ft 0kts
15-Jun-17 11:42 34.895494 -120.444534 314 264ft 0kts
15-Jun-17 11:43 34.895494 -120.444534 314 264ft 0kts
15-Jun-17 11:44 34.895494 -120.444534 314 264ft 0kts
15-Jun-17 11:45 34.895494 -120.444534 314 264ft 0kts
15-Jun-17 11:46 34.895494 -120.444534 314 264ft 0kts
15-Jun-17 11:47 34.895494 -120.444534 314 264ft 0kts
15-Jun-17 11:48 34.895494 -120.444534 314 264ft 0kts
15-Jun-17 11:49 34.895494 -120.444534 314 264ft 0kts
15-Jun-17 11:50 34.895494 -120.444534 314 264ft 0kts
15-Jun-17 11:56 34.900569 -120.451306 228 264ft 0kts
15-Jun-17 11:57 34.900569 -120.451306 228 264ft 0kts
15-Jun-17 11:58 34.900569 -120.451306 228 264ft 0kts
15-Jun-17 11:59 34.900569 -120.451306 228 264ft 0kts
15-Jun-17 12:00 34.899516 -120.451226 161 264ft 11kts
15-Jun-17 12:01 34.896044 -120.447180 136 264ft 21kts
15-Jun-17 12:02 34.893381 -120.444691 190 264ft 0kts
15-Jun-17 12:03 34.893380 -120.444691 190 264ft 0kts
15-Jun-17 12:04 34.893381 -120.444691 190 264ft 0kts
15-Jun-17 12:05 34.893381 -120.444691 190 264ft 0kts
15-Jun-17 12:06 34.893381 -120.444691 190 264ft 0kts
15-Jun-17 12:07 34.893381 -120.444691 190 264ft 0kts
15-Jun-17 12:08 34.892830 -120.445482 270 264ft 18kts
15-Jun-17 12:09 34.909668 -120.465423 315 625ft 98kts
15-Jun-17 12:10 34.931730 -120.472530 39 1373ft 99kts
15-Jun-17 12:11 34.944797 -120.439120 84 2737ft 125kts
15-Jun-17 12:12 34.945906 -120.395963 86 4446ft 130kts
15-Jun-17 12:13 34.947271 -120.351693 84 6085ft 138kts
15-Jun-17 12:14 34.951056 -120.301958 78 7120ft 172kts
15-Jun-17 12:15 34.959744 -120.245169 77 7014ft 167kts
15-Jun-17 12:16 34.974902 -120.193325 61 7016ft 160kts
15-Jun-17 12:16 34.991673 -120.153338 60 7016ft 158kts
15-Jun-17 12:17 35.011645 -120.105806 60 7016ft 157kts
15-Jun-17 12:18 35.031561 -120.058364 60 7017ft 156kts
15-Jun-17 12:19 35.046676 -120.008363 68 7017ft 157kts
15-Jun-17 12:20 35.061106 -119.958051 68 7017ft 157kts
15-Jun-17 12:21 35.078163 -119.909016 62 7017ft 156kts
15-Jun-17 12:23 35.099529 -119.853489 62 7016ft 153kts
15-Jun-17 12:23 35.114009 -119.815828 62 7018ft 152kts
15-Jun-17 12:24 35.132386 -119.769180 60 7018ft 152kts
15-Jun-17 12:25 35.151627 -119.723267 60 7018ft 152kts
15-Jun-17 12:26 35.170912 -119.677226 60 7018ft 152kts
15-Jun-17 12:27 35.190161 -119.631272 60 7018ft 152kts
15-Jun-17 12:28 35.209420 -119.585312 60 7018ft 152kts
15-Jun-17 12:29 35.228661 -119.539396 60 7013ft 149kts
15-Jun-17 12:30 35.247913 -119.493423 60 6377ft 152kts
15-Jun-17 12:31 35.267308 -119.447185 60 5674ft 158kts
15-Jun-17 12:32 35.287675 -119.398825 60 4827ft 161kts
15-Jun-17 12:33 35.308223 -119.350112 60 4023ft 163kts
15-Jun-17 12:34 35.328500 -119.302032 60 3315ft 159kts
15-Jun-17 12:35 35.348482 -119.254534 60 2634ft 155kts
15-Jun-17 12:36 35.368115 -119.207815 60 1957ft 154kts
15-Jun-17 12:37 35.387604 -119.161394 60 1285ft 152kts
15-Jun-17 12:38 35.406433 -119.116986 59 1361ft 150kts
15-Jun-17 12:39 35.404067 -119.065323 122 1762ft 174kts
15-Jun-17 12:40 35.377389 -119.024055 138 1344ft 126kts
15-Jun-17 12:41 35.377468 -118.999169 358 1302ft 109kts
15-Jun-17 12:42 35.400817 -119.016202 312 888ft 101kts
15-Jun-17 12:43 35.419879 -119.039483 314 635ft 96kts
15-Jun-17 12:44 35.436247 -119.059123 315 509ft 47kts
15-Jun-17 12:45 35.437645 -119.058595 137 509ft 14kts
15-Jun-17 12:46 35.435145 -119.054154 44 509ft 13kts
15-Jun-17 12:47 35.435145 -119.054006 122 509ft 0kts
15-Jun-17 12:48 35.435145 -119.054006 122 509ft 0kts
15-Jun-17 12:49 35.435145 -119.054006 122 509ft 0kts
15-Jun-17 12:50 35.435145 -119.054006 122 509ft 0kts
15-Jun-17 12:51 35.435145 -119.054006 122 509ft 0kts

Navigation Log

Ident Type
Flight plan parsing failed, navigation log unavailable